sensor_id;sensor_type;location;lat;lon;timestamp;pressure;altitude;pressure_sealevel;temperature;humidity
41246;BME280;53880;47.526;18.986;2024-03-23T00:54:21;99433.97;;;19.77;42.51
41246;BME280;53880;47.526;18.986;2024-03-23T00:56:39;99419.78;;;19.61;42.24
41246;BME280;53880;47.526;18.986;2024-03-23T00:58:59;99421.28;;;19.47;42.14
41246;BME280;53880;47.526;18.986;2024-03-23T01:01:17;99419.09;;;19.35;42.18
41246;BME280;53880;47.526;18.986;2024-03-23T01:03:34;99425.75;;;19.23;42.17
41246;BME280;53880;47.526;18.986;2024-03-23T01:05:49;99418.53;;;19.15;41.92
41246;BME280;53880;47.526;18.986;2024-03-23T01:08:07;99410.69;;;19.06;42.19
41246;BME280;53880;47.526;18.986;2024-03-23T01:10:25;99401.47;;;18.92;42.00
41246;BME280;53880;47.526;18.986;2024-03-23T01:12:42;99406.44;;;18.87;42.24
41246;BME280;53880;47.526;18.986;2024-03-23T01:14:58;99404.44;;;18.81;42.05
41246;BME280;53880;47.526;18.986;2024-03-23T01:17:17;99403.44;;;18.74;42.02
41246;BME280;53880;47.526;18.986;2024-03-23T01:19:35;99402.56;;;18.65;42.30
41246;BME280;53880;47.526;18.986;2024-03-23T01:21:56;99391.00;;;18.57;42.38
41246;BME280;53880;47.526;18.986;2024-03-23T01:24:13;99394.19;;;18.52;42.15
41246;BME280;53880;47.526;18.986;2024-03-23T01:26:32;99389.47;;;18.46;42.46
41246;BME280;53880;47.526;18.986;2024-03-23T01:28:49;99393.41;;;18.42;42.51
41246;BME280;53880;47.526;18.986;2024-03-23T01:31:10;99393.38;;;18.34;42.38
41246;BME280;53880;47.526;18.986;2024-03-23T01:33:27;99396.53;;;18.29;42.41
41246;BME280;53880;47.526;18.986;2024-03-23T01:35:45;99387.34;;;18.24;42.56
41246;BME280;53880;47.526;18.986;2024-03-23T01:38:00;99385.28;;;18.18;42.71
41246;BME280;53880;47.526;18.986;2024-03-23T01:40:16;99394.75;;;18.12;42.75
41246;BME280;53880;47.526;18.986;2024-03-23T01:42:34;99384.75;;;18.06;42.77
41246;BME280;53880;47.526;18.986;2024-03-23T01:44:51;99382.38;;;18.03;42.65
41246;BME280;53880;47.526;18.986;2024-03-23T01:47:12;99384.69;;;17.98;42.71
41246;BME280;53880;47.526;18.986;2024-03-23T01:49:27;99377.31;;;17.92;42.67
41246;BME280;53880;47.526;18.986;2024-03-23T01:51:45;99376.78;;;17.89;42.89
41246;BME280;53880;47.526;18.986;2024-03-23T01:54:06;99377.59;;;17.81;42.81
41246;BME280;53880;47.526;18.986;2024-03-23T01:56:27;99374.38;;;17.78;42.90
41246;BME280;53880;47.526;18.986;2024-03-23T01:58:42;99375.69;;;17.74;43.21
41246;BME280;53880;47.526;18.986;2024-03-23T02:01:01;99374.34;;;17.70;43.18
41246;BME280;53880;47.526;18.986;2024-03-23T02:05:45;99372.59;;;17.61;43.23
41246;BME280;53880;47.526;18.986;2024-03-23T02:08:07;99367.91;;;17.55;43.27
41246;BME280;53880;47.526;18.986;2024-03-23T02:10:27;99353.91;;;17.52;43.09
41246;BME280;53880;47.526;18.986;2024-03-23T02:12:49;99366.81;;;17.47;43.32
41246;BME280;53880;47.526;18.986;2024-03-23T02:15:09;99358.44;;;17.42;43.50
41246;BME280;53880;47.526;18.986;2024-03-23T02:17:27;99358.75;;;17.39;43.47
41246;BME280;53880;47.526;18.986;2024-03-23T02:19:45;99358.06;;;17.37;43.49
41246;BME280;53880;47.526;18.986;2024-03-23T02:22:06;99354.50;;;17.29;43.72
41246;BME280;53880;47.526;18.986;2024-03-23T02:24:21;99345.97;;;17.25;44.09
41246;BME280;53880;47.526;18.986;2024-03-23T02:26:41;99339.00;;;17.24;43.85
41246;BME280;53880;47.526;18.986;2024-03-23T02:28:58;99351.78;;;17.21;43.88
41246;BME280;53880;47.526;18.986;2024-03-23T02:31:16;99344.38;;;17.15;43.90
41246;BME280;53880;47.526;18.986;2024-03-23T02:33:31;99337.53;;;17.12;43.99
41246;BME280;53880;47.526;18.986;2024-03-23T02:35:55;99341.50;;;17.08;44.39
41246;BME280;53880;47.526;18.986;2024-03-23T02:38:13;99334.50;;;17.07;44.04
41246;BME280;53880;47.526;18.986;2024-03-23T02:40:31;99334.81;;;17.04;44.11
41246;BME280;53880;47.526;18.986;2024-03-23T02:42:46;99324.78;;;16.98;44.26
41246;BME280;53880;47.526;18.986;2024-03-23T02:45:01;99329.41;;;16.96;44.04
41246;BME280;53880;47.526;18.986;2024-03-23T02:47:22;99324.56;;;16.92;44.39
41246;BME280;53880;47.526;18.986;2024-03-23T02:49:37;99317.88;;;16.88;44.42
41246;BME280;53880;47.526;18.986;2024-03-23T02:51:56;99322.50;;;16.86;44.45
41246;BME280;53880;47.526;18.986;2024-03-23T02:54:19;99321.13;;;16.82;44.29
41246;BME280;53880;47.526;18.986;2024-03-23T02:56:37;99320.59;;;16.78;44.35
41246;BME280;53880;47.526;18.986;2024-03-23T02:58:52;99326.06;;;16.76;44.44
41246;BME280;53880;47.526;18.986;2024-03-23T03:01:09;99313.22;;;16.72;44.59
41246;BME280;53880;47.526;18.986;2024-03-23T03:03:29;99319.81;;;16.68;44.57
41246;BME280;53880;47.526;18.986;2024-03-23T03:05:55;99310.47;;;16.64;44.73
41246;BME280;53880;47.526;18.986;2024-03-23T03:08:12;99307.28;;;16.60;44.75
41246;BME280;53880;47.526;18.986;2024-03-23T03:10:27;99311.91;;;16.58;44.55
41246;BME280;53880;47.526;18.986;2024-03-23T03:12:45;99310.41;;;16.56;44.76
41246;BME280;53880;47.526;18.986;2024-03-23T03:15:06;99304.69;;;16.51;44.80
41246;BME280;53880;47.526;18.986;2024-03-23T03:17:23;99300.78;;;16.45;44.78
41246;BME280;53880;47.526;18.986;2024-03-23T03:19:39;99295.59;;;16.44;44.70
41246;BME280;53880;47.526;18.986;2024-03-23T03:22:01;99291.41;;;16.41;44.88
41246;BME280;53880;47.526;18.986;2024-03-23T03:24:19;99295.22;;;16.39;44.88
41246;BME280;53880;47.526;18.986;2024-03-23T03:26:41;99294.50;;;16.37;44.79
41246;BME280;53880;47.526;18.986;2024-03-23T03:28:56;99285.84;;;16.35;44.92
41246;BME280;53880;47.526;18.986;2024-03-23T03:31:14;99286.16;;;16.32;44.78
41246;BME280;53880;47.526;18.986;2024-03-23T03:33:32;99286.75;;;16.26;45.18
41246;BME280;53880;47.526;18.986;2024-03-23T03:35:52;99279.75;;;16.25;45.20
41246;BME280;53880;47.526;18.986;2024-03-23T03:38:09;99287.22;;;16.21;45.39
41246;BME280;53880;47.526;18.986;2024-03-23T03:40:31;99284.41;;;16.23;45.11
41246;BME280;53880;47.526;18.986;2024-03-23T03:42:46;99289.03;;;16.21;45.29
41246;BME280;53880;47.526;18.986;2024-03-23T03:45:06;99283.03;;;16.19;45.35
41246;BME280;53880;47.526;18.986;2024-03-23T03:47:22;99280.53;;;16.17;45.43
41246;BME280;53880;47.526;18.986;2024-03-23T03:49:40;99280.66;;;16.16;45.55
41246;BME280;53880;47.526;18.986;2024-03-23T03:51:59;99280.81;;;16.14;45.56
41246;BME280;53880;47.526;18.986;2024-03-23T03:54:17;99271.31;;;16.12;45.96
41246;BME280;53880;47.526;18.986;2024-03-23T03:56:36;99280.28;;;16.11;45.79
41246;BME280;53880;47.526;18.986;2024-03-23T03:58:54;99275.50;;;16.14;46.34
41246;BME280;53880;47.526;18.986;2024-03-23T04:01:09;99272.03;;;16.31;46.59
41246;BME280;53880;47.526;18.986;2024-03-23T04:03:28;99270.97;;;16.51;46.80
41246;BME280;53880;47.526;18.986;2024-03-23T04:05:56;99266.47;;;16.69;46.63
41246;BME280;53880;47.526;18.986;2024-03-23T04:08:14;99265.97;;;16.84;46.81
41246;BME280;53880;47.526;18.986;2024-03-23T04:10:39;99262.06;;;16.96;46.70
41246;BME280;53880;47.526;18.986;2024-03-23T04:12:53;99257.50;;;17.06;46.65
41246;BME280;53880;47.526;18.986;2024-03-23T04:15:13;99258.41;;;17.14;46.82
41246;BME280;53880;47.526;18.986;2024-03-23T04:17:35;99250.63;;;17.21;46.75
41246;BME280;53880;47.526;18.986;2024-03-23T04:19:53;99251.66;;;17.28;46.95
41246;BME280;53880;47.526;18.986;2024-03-23T04:22:14;99243.75;;;17.36;46.93
41246;BME280;53880;47.526;18.986;2024-03-23T04:24:34;99253.59;;;17.43;46.98
41246;BME280;53880;47.526;18.986;2024-03-23T04:26:55;99250.47;;;17.48;46.87
41246;BME280;53880;47.526;18.986;2024-03-23T04:29:12;99244.72;;;17.52;47.04
41246;BME280;53880;47.526;18.986;2024-03-23T04:31:32;99246.06;;;17.57;47.12
41246;BME280;53880;47.526;18.986;2024-03-23T04:33:52;99249.22;;;17.60;46.95
41246;BME280;53880;47.526;18.986;2024-03-23T04:36:09;99255.91;;;17.64;47.16
41246;BME280;53880;47.526;18.986;2024-03-23T04:38:24;99258.09;;;17.69;47.14
41246;BME280;53880;47.526;18.986;2024-03-23T04:40:42;99258.78;;;17.71;47.15
41246;BME280;53880;47.526;18.986;2024-03-23T04:42:59;99252.16;;;17.75;47.01
41246;BME280;53880;47.526;18.986;2024-03-23T04:45:19;99245.66;;;17.77;47.23
41246;BME280;53880;47.526;18.986;2024-03-23T04:47:42;99247.16;;;17.80;47.04
41246;BME280;53880;47.526;18.986;2024-03-23T04:50:00;99246.03;;;17.82;47.02
41246;BME280;53880;47.526;18.986;2024-03-23T04:52:20;99240.53;;;17.84;47.29
41246;BME280;53880;47.526;18.986;2024-03-23T04:54:39;99243.06;;;17.85;46.92
41246;BME280;53880;47.526;18.986;2024-03-23T04:57:00;99241.88;;;17.88;47.26
41246;BME280;53880;47.526;18.986;2024-03-23T04:59:18;99246.06;;;17.90;47.21
41246;BME280;53880;47.526;18.986;2024-03-23T05:01:38;99251.06;;;17.93;47.54
41246;BME280;53880;47.526;18.986;2024-03-23T05:04:02;99238.41;;;17.95;47.37
41246;BME280;53880;47.526;18.986;2024-03-23T05:06:20;99246.09;;;17.98;47.68
41246;BME280;53880;47.526;18.986;2024-03-23T05:08:38;99243.94;;;18.02;47.79
41246;BME280;53880;47.526;18.986;2024-03-23T05:10:53;99239.28;;;18.04;47.78
41246;BME280;53880;47.526;18.986;2024-03-23T05:13:10;99234.63;;;18.06;47.95
41246;BME280;53880;47.526;18.986;2024-03-23T05:15:30;99237.97;;;18.08;47.83
41246;BME280;53880;47.526;18.986;2024-03-23T05:17:50;99239.66;;;18.09;48.00
41246;BME280;53880;47.526;18.986;2024-03-23T05:20:09;99239.31;;;18.12;47.80
41246;BME280;53880;47.526;18.986;2024-03-23T05:22:27;99241.00;;;18.13;47.80
41246;BME280;53880;47.526;18.986;2024-03-23T05:24:42;99237.31;;;18.14;47.96
41246;BME280;53880;47.526;18.986;2024-03-23T05:27:06;99239.66;;;18.17;47.93
41246;BME280;53880;47.526;18.986;2024-03-23T05:29:26;99227.19;;;18.17;47.99
41246;BME280;53880;47.526;18.986;2024-03-23T05:31:49;99225.50;;;18.16;47.83
41246;BME280;53880;47.526;18.986;2024-03-23T05:34:04;99224.03;;;18.22;47.89
41246;BME280;53880;47.526;18.986;2024-03-23T05:36:20;99228.72;;;18.28;47.82
41246;BME280;53880;47.526;18.986;2024-03-23T05:38:37;99234.06;;;18.36;47.52
41246;BME280;53880;47.526;18.986;2024-03-23T05:41:00;99229.59;;;18.45;47.55
41246;BME280;53880;47.526;18.986;2024-03-23T05:43:21;99229.47;;;18.54;47.33
41246;BME280;53880;47.526;18.986;2024-03-23T05:45:44;99224.47;;;18.67;47.10
41246;BME280;53880;47.526;18.986;2024-03-23T05:48:04;99221.63;;;18.77;46.79
41246;BME280;53880;47.526;18.986;2024-03-23T05:50:20;99215.13;;;18.87;46.82
41246;BME280;53880;47.526;18.986;2024-03-23T05:52:40;99217.63;;;18.97;46.56
41246;BME280;53880;47.526;18.986;2024-03-23T05:54:58;99217.31;;;19.08;46.56
41246;BME280;53880;47.526;18.986;2024-03-23T05:57:13;99218.13;;;19.17;46.56
41246;BME280;53880;47.526;18.986;2024-03-23T05:59:31;99214.59;;;19.24;46.30
41246;BME280;53880;47.526;18.986;2024-03-23T06:01:49;99212.75;;;19.33;46.40
41246;BME280;53880;47.526;18.986;2024-03-23T06:04:07;99214.75;;;19.39;46.40
41246;BME280;53880;47.526;18.986;2024-03-23T06:06:26;99205.91;;;19.46;46.49
41246;BME280;53880;47.526;18.986;2024-03-23T06:08:42;99206.91;;;19.53;46.15
41246;BME280;53880;47.526;18.986;2024-03-23T06:10:59;99203.53;;;19.59;46.50
41246;BME280;53880;47.526;18.986;2024-03-23T06:13:14;99202.84;;;19.65;46.19
41246;BME280;53880;47.526;18.986;2024-03-23T06:15:32;99194.97;;;19.72;46.25
41246;BME280;53880;47.526;18.986;2024-03-23T06:17:50;99192.63;;;19.77;46.09
41246;BME280;53880;47.526;18.986;2024-03-23T06:20:07;99186.59;;;19.83;46.31
41246;BME280;53880;47.526;18.986;2024-03-23T06:22:27;99182.38;;;19.89;46.13
41246;BME280;53880;47.526;18.986;2024-03-23T06:24:45;99174.84;;;19.92;46.11
41246;BME280;53880;47.526;18.986;2024-03-23T06:27:00;99172.13;;;20.00;46.34
41246;BME280;53880;47.526;18.986;2024-03-23T06:29:22;99172.44;;;20.05;46.13
41246;BME280;53880;47.526;18.986;2024-03-23T06:31:40;99170.72;;;20.12;46.25
41246;BME280;53880;47.526;18.986;2024-03-23T06:33:59;99169.00;;;20.19;46.62
41246;BME280;53880;47.526;18.986;2024-03-23T06:36:19;99166.69;;;20.24;46.19
41246;BME280;53880;47.526;18.986;2024-03-23T06:38:42;99156.63;;;20.26;46.14
41246;BME280;53880;47.526;18.986;2024-03-23T06:40:57;99165.31;;;20.28;45.39
41246;BME280;53880;47.526;18.986;2024-03-23T06:43:17;99167.84;;;20.22;44.63
41246;BME280;53880;47.526;18.986;2024-03-23T06:45:34;99168.16;;;20.19;44.52
41246;BME280;53880;47.526;18.986;2024-03-23T06:47:52;99169.19;;;20.18;43.67
41246;BME280;53880;47.526;18.986;2024-03-23T06:50:09;99169.53;;;20.15;43.42
41246;BME280;53880;47.526;18.986;2024-03-23T06:52:31;99158.56;;;20.10;43.00
41246;BME280;53880;47.526;18.986;2024-03-23T06:54:49;99159.88;;;20.06;43.18
41246;BME280;53880;47.526;18.986;2024-03-23T06:57:04;99156.56;;;20.04;42.76
41246;BME280;53880;47.526;18.986;2024-03-23T06:59:27;99161.09;;;20.03;42.88
41246;BME280;53880;47.526;18.986;2024-03-23T07:01:44;99158.06;;;20.06;43.06
41246;BME280;53880;47.526;18.986;2024-03-23T07:03:59;99157.34;;;20.12;42.76
41246;BME280;53880;47.526;18.986;2024-03-23T07:06:19;99148.63;;;20.18;42.48
41246;BME280;53880;47.526;18.986;2024-03-23T07:08:40;99147.13;;;20.24;42.58
41246;BME280;53880;47.526;18.986;2024-03-23T07:10:57;99141.88;;;20.30;42.42
41246;BME280;53880;47.526;18.986;2024-03-23T07:13:12;99139.53;;;20.35;42.25
41246;BME280;53880;47.526;18.986;2024-03-23T07:15:30;99136.31;;;20.40;41.95
41246;BME280;53880;47.526;18.986;2024-03-23T07:17:50;99134.09;;;20.43;42.05
41246;BME280;53880;47.526;18.986;2024-03-23T07:20:12;99129.88;;;20.49;41.88
41246;BME280;53880;47.526;18.986;2024-03-23T07:22:32;99132.50;;;20.57;42.11
41246;BME280;53880;47.526;18.986;2024-03-23T07:24:50;99129.28;;;20.62;41.99
41246;BME280;53880;47.526;18.986;2024-03-23T07:27:10;99120.88;;;20.65;41.93
41246;BME280;53880;47.526;18.986;2024-03-23T07:29:27;99128.72;;;20.66;41.75
41246;BME280;53880;47.526;18.986;2024-03-23T07:31:47;99126.88;;;20.67;41.74
41246;BME280;53880;47.526;18.986;2024-03-23T07:34:04;99121.53;;;20.67;41.77
41246;BME280;53880;47.526;18.986;2024-03-23T07:36:20;99106.66;;;20.64;41.87
41246;BME280;53880;47.526;18.986;2024-03-23T07:38:43;99102.53;;;20.62;41.62
41246;BME280;53880;47.526;18.986;2024-03-23T07:41:08;99104.91;;;20.57;41.69
41246;BME280;53880;47.526;18.986;2024-03-23T07:43:26;99107.09;;;20.53;41.75
41246;BME280;53880;47.526;18.986;2024-03-23T07:45:53;99104.78;;;20.50;41.73
41246;BME280;53880;47.526;18.986;2024-03-23T07:48:15;99097.50;;;20.44;41.77
41246;BME280;53880;47.526;18.986;2024-03-23T07:50:32;99095.56;;;20.30;41.85
41246;BME280;53880;47.526;18.986;2024-03-23T07:52:50;99090.94;;;20.24;42.39
41246;BME280;53880;47.526;18.986;2024-03-23T07:55:05;99094.81;;;20.21;42.46
41246;BME280;53880;47.526;18.986;2024-03-23T07:57:23;99092.81;;;20.15;42.64
41246;BME280;53880;47.526;18.986;2024-03-23T07:59:45;99092.50;;;20.10;42.69
41246;BME280;53880;47.526;18.986;2024-03-23T08:02:04;99098.03;;;20.09;42.80
41246;BME280;53880;47.526;18.986;2024-03-23T08:04:25;99079.66;;;20.06;42.97
41246;BME280;53880;47.526;18.986;2024-03-23T08:06:45;99078.22;;;20.03;42.69
41246;BME280;53880;47.526;18.986;2024-03-23T08:09:04;99083.06;;;20.00;42.91
41246;BME280;53880;47.526;18.986;2024-03-23T08:11:22;99093.28;;;19.96;43.09
41246;BME280;53880;47.526;18.986;2024-03-23T08:13:39;99086.25;;;19.95;43.31
41246;BME280;53880;47.526;18.986;2024-03-23T08:16:01;99093.28;;;19.96;43.52
41246;BME280;53880;47.526;18.986;2024-03-23T08:18:17;99087.63;;;19.91;43.25
41246;BME280;53880;47.526;18.986;2024-03-23T08:20:35;99077.34;;;19.80;43.22
41246;BME280;53880;47.526;18.986;2024-03-23T08:22:52;99073.84;;;19.80;43.53
41246;BME280;53880;47.526;18.986;2024-03-23T08:25:10;99073.47;;;19.83;43.94
41246;BME280;53880;47.526;18.986;2024-03-23T08:27:31;99073.59;;;19.89;43.73
41246;BME280;53880;47.526;18.986;2024-03-23T08:29:46;99063.03;;;19.96;43.36
41246;BME280;53880;47.526;18.986;2024-03-23T08:32:06;99054.97;;;20.04;43.28
41246;BME280;53880;47.526;18.986;2024-03-23T08:34:21;99056.56;;;20.13;42.90
41246;BME280;53880;47.526;18.986;2024-03-23T08:36:41;99043.66;;;20.24;42.86
41246;BME280;53880;47.526;18.986;2024-03-23T08:39:01;99046.88;;;20.34;42.66
41246;BME280;53880;47.526;18.986;2024-03-23T08:41:22;99042.78;;;20.46;42.28
41246;BME280;53880;47.526;18.986;2024-03-23T08:43:41;99032.84;;;20.55;42.60
41246;BME280;53880;47.526;18.986;2024-03-23T08:46:05;99030.72;;;20.65;42.10
41246;BME280;53880;47.526;18.986;2024-03-23T08:48:24;99036.81;;;20.74;42.11
41246;BME280;53880;47.526;18.986;2024-03-23T08:50:44;99035.25;;;20.79;41.73
41246;BME280;53880;47.526;18.986;2024-03-23T08:53:01;99034.53;;;20.85;41.77
41246;BME280;53880;47.526;18.986;2024-03-23T08:55:22;99026.13;;;20.88;41.47
41246;BME280;53880;47.526;18.986;2024-03-23T08:57:41;99029.25;;;20.92;41.60
41246;BME280;53880;47.526;18.986;2024-03-23T09:00:01;99024.38;;;20.95;41.15
41246;BME280;53880;47.526;18.986;2024-03-23T09:02:23;99023.34;;;20.96;41.66
41246;BME280;53880;47.526;18.986;2024-03-23T09:04:38;99019.84;;;20.96;41.38
41246;BME280;53880;47.526;18.986;2024-03-23T09:06:55;99014.31;;;20.97;41.72
41246;BME280;53880;47.526;18.986;2024-03-23T09:09:21;99008.13;;;20.97;41.49
41246;BME280;53880;47.526;18.986;2024-03-23T09:11:43;99003.78;;;20.96;41.61
41246;BME280;53880;47.526;18.986;2024-03-23T09:13:59;98998.59;;;20.94;41.91
41246;BME280;53880;47.526;18.986;2024-03-23T09:16:16;98997.78;;;20.94;42.16
41246;BME280;53880;47.526;18.986;2024-03-23T09:18:36;98988.53;;;20.96;42.26
41246;BME280;53880;47.526;18.986;2024-03-23T09:20:51;98992.88;;;20.97;42.42
41246;BME280;53880;47.526;18.986;2024-03-23T09:23:11;98991.69;;;21.00;42.32
41246;BME280;53880;47.526;18.986;2024-03-23T09:25:26;98989.84;;;21.00;42.50
41246;BME280;53880;47.526;18.986;2024-03-23T09:27:48;98994.53;;;20.98;42.65
41246;BME280;53880;47.526;18.986;2024-03-23T09:30:07;98993.88;;;20.96;42.68
41246;BME280;53880;47.526;18.986;2024-03-23T09:32:27;98979.69;;;20.96;42.87
41246;BME280;53880;47.526;18.986;2024-03-23T09:34:47;98986.03;;;20.95;42.60
41246;BME280;53880;47.526;18.986;2024-03-23T09:37:07;98975.69;;;20.92;42.83
41246;BME280;53880;47.526;18.986;2024-03-23T09:39:29;98986.59;;;20.90;42.86
41246;BME280;53880;47.526;18.986;2024-03-23T09:41:45;98980.59;;;20.88;43.22
41246;BME280;53880;47.526;18.986;2024-03-23T09:44:05;98970.44;;;20.84;42.94
41246;BME280;53880;47.526;18.986;2024-03-23T09:46:24;98963.44;;;20.83;42.92
41246;BME280;53880;47.526;18.986;2024-03-23T09:48:39;98957.91;;;20.84;43.20
41246;BME280;53880;47.526;18.986;2024-03-23T09:50:55;98957.06;;;20.84;43.25
41246;BME280;53880;47.526;18.986;2024-03-23T09:53:16;98962.41;;;20.84;43.05
41246;BME280;53880;47.526;18.986;2024-03-23T09:55:31;98958.47;;;20.80;43.14
41246;BME280;53880;47.526;18.986;2024-03-23T09:57:46;98967.03;;;20.75;42.90
41246;BME280;53880;47.526;18.986;2024-03-23T10:00:07;98961.69;;;20.75;42.91
41246;BME280;53880;47.526;18.986;2024-03-23T10:02:23;98948.09;;;20.77;42.95
41246;BME280;53880;47.526;18.986;2024-03-23T10:04:44;98950.63;;;20.78;43.02
41246;BME280;53880;47.526;18.986;2024-03-23T10:07:23;98938.88;;;20.79;43.00
41246;BME280;53880;47.526;18.986;2024-03-23T10:09:41;98931.03;;;20.78;42.89
41246;BME280;53880;47.526;18.986;2024-03-23T10:12:14;98922.38;;;20.76;43.05
41246;BME280;53880;47.526;18.986;2024-03-23T10:14:34;98924.22;;;20.75;42.95
41246;BME280;53880;47.526;18.986;2024-03-23T10:17:12;98923.22;;;20.76;43.59
41246;BME280;53880;47.526;18.986;2024-03-23T10:19:35;98928.16;;;20.79;43.45
41246;BME280;53880;47.526;18.986;2024-03-23T10:21:53;98922.00;;;20.79;43.85
41246;BME280;53880;47.526;18.986;2024-03-23T10:24:12;98928.38;;;20.78;43.98
41246;BME280;53880;47.526;18.986;2024-03-23T10:26:30;98919.06;;;20.74;43.66
41246;BME280;53880;47.526;18.986;2024-03-23T10:28:58;98927.00;;;20.67;43.32
41246;BME280;53880;47.526;18.986;2024-03-23T10:31:19;98925.91;;;20.62;43.39
41246;BME280;53880;47.526;18.986;2024-03-23T10:33:44;98914.72;;;20.58;43.02
41246;BME280;53880;47.526;18.986;2024-03-23T10:36:02;98919.78;;;20.53;42.86
41246;BME280;53880;47.526;18.986;2024-03-23T10:38:26;98897.09;;;20.49;42.74
41246;BME280;53880;47.526;18.986;2024-03-23T10:40:44;98892.28;;;20.44;42.49
41246;BME280;53880;47.526;18.986;2024-03-23T10:43:06;98888.16;;;20.42;42.98
41246;BME280;53880;47.526;18.986;2024-03-23T10:45:27;98886.50;;;20.41;42.78
41246;BME280;53880;47.526;18.986;2024-03-23T10:47:46;98880.94;;;20.42;42.79
41246;BME280;53880;47.526;18.986;2024-03-23T10:50:08;98874.41;;;20.45;42.56
41246;BME280;53880;47.526;18.986;2024-03-23T10:52:27;98872.84;;;20.50;42.50
41246;BME280;53880;47.526;18.986;2024-03-23T10:54:45;98871.06;;;20.58;42.18
41246;BME280;53880;47.526;18.986;2024-03-23T10:57:17;98874.84;;;20.63;42.17
41246;BME280;53880;47.526;18.986;2024-03-23T10:59:38;98867.91;;;20.69;41.71
41246;BME280;53880;47.526;18.986;2024-03-23T11:01:55;98859.34;;;20.73;41.61
41246;BME280;53880;47.526;18.986;2024-03-23T11:06:50;98847.69;;;20.81;41.32
41246;BME280;53880;47.526;18.986;2024-03-23T11:11:55;98836.44;;;20.85;41.39
41246;BME280;53880;47.526;18.986;2024-03-23T11:14:24;98834.84;;;20.91;42.33
41246;BME280;53880;47.526;18.986;2024-03-23T11:16:42;98829.13;;;20.94;42.39
41246;BME280;53880;47.526;18.986;2024-03-23T11:19:34;98824.63;;;21.01;42.59
41246;BME280;53880;47.526;18.986;2024-03-23T11:21:54;98821.44;;;21.05;42.96
41246;BME280;53880;47.526;18.986;2024-03-23T11:24:14;98815.50;;;21.10;43.69
41246;BME280;53880;47.526;18.986;2024-03-23T11:26:38;98819.66;;;21.12;43.10
41246;BME280;53880;47.526;18.986;2024-03-23T11:29:09;98810.41;;;21.15;42.57
41246;BME280;53880;47.526;18.986;2024-03-23T11:31:27;98812.06;;;21.16;41.51
41246;BME280;53880;47.526;18.986;2024-03-23T11:33:44;98801.16;;;21.17;40.84
41246;BME280;53880;47.526;18.986;2024-03-23T11:36:05;98806.13;;;21.20;40.98
41246;BME280;53880;47.526;18.986;2024-03-23T11:38:22;98806.59;;;21.24;40.74
41246;BME280;53880;47.526;18.986;2024-03-23T11:40:42;98791.31;;;21.24;40.71
41246;BME280;53880;47.526;18.986;2024-03-23T11:43:24;98789.47;;;21.25;41.22
41246;BME280;53880;47.526;18.986;2024-03-23T11:48:04;98785.78;;;21.26;41.63
41246;BME280;53880;47.526;18.986;2024-03-23T11:50:24;98769.72;;;21.26;41.34
41246;BME280;53880;47.526;18.986;2024-03-23T11:52:42;98766.41;;;21.24;41.13
41246;BME280;53880;47.526;18.986;2024-03-23T11:55:06;98769.25;;;21.22;41.07
41246;BME280;53880;47.526;18.986;2024-03-23T11:57:24;98762.25;;;21.21;40.84
41246;BME280;53880;47.526;18.986;2024-03-23T11:59:43;98766.59;;;21.22;42.25
41246;BME280;53880;47.526;18.986;2024-03-23T12:02:00;98750.34;;;21.24;42.31
41246;BME280;53880;47.526;18.986;2024-03-23T12:04:29;98738.16;;;21.21;42.50
41246;BME280;53880;47.526;18.986;2024-03-23T12:06:47;98748.41;;;21.18;42.67
41246;BME280;53880;47.526;18.986;2024-03-23T12:09:05;98736.06;;;21.17;42.36
41246;BME280;53880;47.526;18.986;2024-03-23T12:11:26;98735.41;;;21.15;42.50
41246;BME280;53880;47.526;18.986;2024-03-23T12:13:47;98727.56;;;21.13;42.67
41246;BME280;53880;47.526;18.986;2024-03-23T12:16:11;98721.56;;;21.11;42.46
41246;BME280;53880;47.526;18.986;2024-03-23T12:18:28;98721.97;;;21.08;42.40
41246;BME280;53880;47.526;18.986;2024-03-23T12:20:46;98718.66;;;21.06;42.08
41246;BME280;53880;47.526;18.986;2024-03-23T12:23:09;98718.81;;;21.05;42.07
41246;BME280;53880;47.526;18.986;2024-03-23T12:25:28;98713.00;;;21.01;42.29
41246;BME280;53880;47.526;18.986;2024-03-23T12:27:46;98709.69;;;20.99;41.88
41246;BME280;53880;47.526;18.986;2024-03-23T12:30:03;98703.72;;;20.97;41.80
41246;BME280;53880;47.526;18.986;2024-03-23T12:32:23;98709.28;;;20.96;42.05
41246;BME280;53880;47.526;18.986;2024-03-23T12:34:41;98704.28;;;20.93;41.63
41246;BME280;53880;47.526;18.986;2024-03-23T12:37:05;98695.81;;;20.89;41.73
41246;BME280;53880;47.526;18.986;2024-03-23T12:39:29;98701.34;;;20.88;41.64
41246;BME280;53880;47.526;18.986;2024-03-23T12:41:48;98687.72;;;20.83;41.50
41246;BME280;53880;47.526;18.986;2024-03-23T12:44:07;98690.56;;;20.81;41.52
41246;BME280;53880;47.526;18.986;2024-03-23T12:46:29;98683.59;;;20.80;41.67
41246;BME280;53880;47.526;18.986;2024-03-23T12:48:46;98680.91;;;20.80;42.21
41246;BME280;53880;47.526;18.986;2024-03-23T12:51:06;98685.44;;;20.80;41.71
41246;BME280;53880;47.526;18.986;2024-03-23T12:53:24;98675.28;;;20.75;41.54
41246;BME280;53880;47.526;18.986;2024-03-23T12:55:42;98672.81;;;20.74;41.49
41246;BME280;53880;47.526;18.986;2024-03-23T12:57:59;98679.16;;;20.73;41.65
41246;BME280;53880;47.526;18.986;2024-03-23T13:00:19;98675.06;;;20.70;41.31
41246;BME280;53880;47.526;18.986;2024-03-23T13:02:42;98661.00;;;20.68;40.93
41246;BME280;53880;47.526;18.986;2024-03-23T13:04:58;98660.38;;;20.66;41.13
41246;BME280;53880;47.526;18.986;2024-03-23T13:07:19;98663.25;;;20.65;41.37
41246;BME280;53880;47.526;18.986;2024-03-23T13:09:37;98659.94;;;20.63;41.32
41246;BME280;53880;47.526;18.986;2024-03-23T13:11:57;98654.78;;;20.61;41.20